createdAt,value
2023-04-10T00:00:18.972Z,52.48
2023-04-10T00:05:21.660Z,52.86
2023-04-10T00:10:26.508Z,54.63
2023-04-10T00:15:29.575Z,54.93
2023-04-10T00:20:32.205Z,55.13
2023-04-10T00:25:34.835Z,54.32
2023-04-10T00:30:37.513Z,53.71
2023-04-10T00:35:40.342Z,53.61
2023-04-10T00:40:43.049Z,54.38
2023-04-10T00:45:47.399Z,54.85
2023-04-10T00:50:51.631Z,55.59
2023-04-10T00:55:55.104Z,55.31
2023-04-10T01:00:57.748Z,55.75
2023-04-10T01:06:16.770Z,55.65
2023-04-10T01:11:44.975Z,55.81
2023-04-10T01:17:05.017Z,56.05
2023-04-10T01:22:12.057Z,56.79
2023-04-10T01:27:37.190Z,57.71
2023-04-10T01:32:41.604Z,57.20
2023-04-10T01:37:48.852Z,58.44
2023-04-10T01:42:55.445Z,58.25
2023-04-10T01:48:04.755Z,58.64
2023-04-10T01:53:08.320Z,58.75
2023-04-10T01:58:11.334Z,58.32
2023-04-10T02:03:15.049Z,59.46
2023-04-10T02:08:26.560Z,61.03
2023-04-10T02:13:30.567Z,63.25
2023-04-10T02:18:35.933Z,63.81
2023-04-10T02:23:38.966Z,64.84
2023-04-10T02:28:41.552Z,66.30
2023-04-10T02:33:44.192Z,67.40
2023-04-10T02:38:47.359Z,69.20
2023-04-10T02:43:50.087Z,70.59
2023-04-10T02:48:56.230Z,71.11
2023-04-10T02:53:59.033Z,71.23
2023-04-10T02:59:06.166Z,72.35
2023-04-10T03:04:09.944Z,71.98
2023-04-10T03:09:16.104Z,72.23
2023-04-10T03:14:18.841Z,72.78
2023-04-10T03:19:21.854Z,73.10
2023-04-10T03:24:24.730Z,73.51
2023-04-10T03:29:27.432Z,73.67
2023-04-10T03:34:31.541Z,74.09
2023-04-10T03:39:34.384Z,74.00
2023-04-10T03:44:38.068Z,74.57
2023-04-10T03:49:41.000Z,74.69
2023-04-10T03:54:43.896Z,73.76
2023-04-10T03:59:58.085Z,73.17
2023-04-10T04:05:02.534Z,73.16
2023-04-10T04:10:25.582Z,71.62
2023-04-10T04:15:47.986Z,70.52
2023-04-10T04:21:09.609Z,69.29
2023-04-10T04:26:31.336Z,67.94
2023-04-10T04:31:47.539Z,67.74
2023-04-10T04:37:28.384Z,68.42
2023-04-10T04:42:51.788Z,67.33
2023-04-10T04:48:20.807Z,67.14
2023-04-10T04:53:48.108Z,65.86
2023-04-10T04:59:10.943Z,64.66
2023-04-10T05:04:39.426Z,63.11
2023-04-10T05:10:14.085Z,62.37
2023-04-10T05:15:37.492Z,61.67
2023-04-10T05:21:06.598Z,59.87
2023-04-10T05:26:19.083Z,58.40
2023-04-10T05:31:24.754Z,57.33
2023-04-10T05:36:36.894Z,56.14
2023-04-10T05:41:44.681Z,54.81
2023-04-10T05:47:19.640Z,53.46
2023-04-10T05:52:31.810Z,53.23
2023-04-10T05:57:57.409Z,53.15
2023-04-10T06:03:32.460Z,51.46
2023-04-10T06:08:37.727Z,49.44
2023-04-10T06:13:40.668Z,48.35
2023-04-10T06:18:44.376Z,47.51
2023-04-10T06:23:47.248Z,46.40
2023-04-10T06:28:50.025Z,45.15
2023-04-10T06:33:53.065Z,45.93
2023-04-10T06:38:57.452Z,45.33
2023-04-10T06:44:01.782Z,43.86
2023-04-10T06:49:06.348Z,41.52
2023-04-10T06:54:09.001Z,40.52
2023-04-10T06:59:11.526Z,39.90
2023-04-10T07:04:14.113Z,39.56
2023-04-10T07:09:16.758Z,39.82
2023-04-10T07:14:19.468Z,40.22
2023-04-10T07:19:22.097Z,40.35
2023-04-10T07:24:24.797Z,40.30
2023-04-10T07:29:27.602Z,39.54
2023-04-10T07:34:31.943Z,39.25
2023-04-10T07:39:34.534Z,39.35
2023-04-10T07:44:37.347Z,38.98
2023-04-10T07:49:39.906Z,38.27
2023-04-10T07:54:42.517Z,37.95
2023-04-10T07:59:45.255Z,37.24
2023-04-10T08:04:48.016Z,37.30
2023-04-10T08:09:50.816Z,37.02
2023-04-10T08:14:53.784Z,35.77
2023-04-10T08:19:57.070Z,35.12
2023-04-10T08:24:59.797Z,35.98
2023-04-10T08:30:02.553Z,36.30
2023-04-10T08:35:06.719Z,35.80
2023-04-10T08:40:09.707Z,36.62
2023-04-10T08:45:12.417Z,37.95
2023-04-10T08:50:17.853Z,37.95
2023-04-10T08:55:21.631Z,38.21
2023-04-10T09:00:24.409Z,37.88
2023-04-10T09:05:30.966Z,37.91
2023-04-10T09:10:33.556Z,37.38
2023-04-10T09:15:59.796Z,37.38
2023-04-10T09:21:11.146Z,37.70
2023-04-10T09:26:28.471Z,37.66
2023-04-10T09:31:36.339Z,37.44
2023-04-10T09:36:41.966Z,36.65
2023-04-10T09:41:53.527Z,36.55
2023-04-10T09:46:56.297Z,35.98
2023-04-10T09:51:58.923Z,35.99
2023-04-10T09:57:01.986Z,35.91
2023-04-10T10:02:05.652Z,35.37
2023-04-10T10:07:08.553Z,36.14
2023-04-10T10:12:12.914Z,35.86
2023-04-10T10:17:18.164Z,35.86
2023-04-10T10:22:23.148Z,36.75
2023-04-10T10:27:27.504Z,35.94
2023-04-10T10:32:31.124Z,35.64
2023-04-10T10:37:37.826Z,35.17
2023-04-10T10:42:46.237Z,35.93
2023-04-10T10:47:54.035Z,34.72
2023-04-10T10:52:57.772Z,34.24
2023-04-10T10:58:05.567Z,34.83
2023-04-10T11:03:08.260Z,35.85
2023-04-10T11:08:11.014Z,37.06
2023-04-10T11:13:17.978Z,36.33
2023-04-10T11:18:21.170Z,35.60
2023-04-10T11:23:24.211Z,36.31
2023-04-10T11:28:35.644Z,36.50
2023-04-10T11:33:38.434Z,36.50
2023-04-10T11:38:41.257Z,36.42
2023-04-10T11:43:43.930Z,36.05
2023-04-10T11:48:46.993Z,36.04
2023-04-10T11:53:49.856Z,36.25
2023-04-10T11:58:54.705Z,36.24
2023-04-10T12:03:57.981Z,36.83
2023-04-10T12:09:00.697Z,37.08
2023-04-10T12:14:03.803Z,36.65
2023-04-10T12:19:06.826Z,39.15
2023-04-10T12:24:10.674Z,43.39
2023-04-10T12:29:13.545Z,44.45
2023-04-10T12:34:19.034Z,44.85
2023-04-10T12:39:23.693Z,45.62
2023-04-10T12:44:27.283Z,45.56
2023-04-10T12:49:29.951Z,46.20
2023-04-10T12:54:34.538Z,46.58
2023-04-10T12:59:37.671Z,47.20
2023-04-10T13:04:40.569Z,47.93
2023-04-10T13:09:43.307Z,48.29
2023-04-10T13:14:46.733Z,49.23
2023-04-10T13:19:49.306Z,49.29
2023-04-10T13:24:51.882Z,48.98
2023-04-10T13:29:56.290Z,48.50
2023-04-10T13:34:59.066Z,47.20
2023-04-10T13:40:01.785Z,47.61
2023-04-10T13:45:05.520Z,48.36
2023-04-10T13:50:08.998Z,47.48
2023-04-10T13:55:11.656Z,47.13
2023-04-10T14:00:15.777Z,48.09
2023-04-10T14:05:18.518Z,47.67
2023-04-10T14:10:21.174Z,47.89
2023-04-10T14:15:23.752Z,48.21
2023-04-10T14:20:26.458Z,48.84
2023-04-10T14:25:29.088Z,48.74
2023-04-10T14:30:32.881Z,48.28
2023-04-10T14:35:35.646Z,49.09
2023-04-10T14:40:40.771Z,49.19
2023-04-10T14:45:43.526Z,49.63
2023-04-10T14:50:46.144Z,49.79
2023-04-10T14:55:49.335Z,50.31
2023-04-10T15:00:52.269Z,49.99
2023-04-10T15:06:01.397Z,50.04
2023-04-10T15:11:06.763Z,50.12
2023-04-10T15:16:09.440Z,50.50
2023-04-10T15:21:12.075Z,50.23
2023-04-10T15:26:15.675Z,50.46
2023-04-10T15:31:22.572Z,50.78
2023-04-10T15:36:25.708Z,50.92
2023-04-10T15:41:30.342Z,51.55
2023-04-10T15:46:33.300Z,51.98
2023-04-10T15:51:36.297Z,52.51
2023-04-10T15:56:40.810Z,52.80
2023-04-10T16:01:43.491Z,53.25
2023-04-10T16:06:46.785Z,53.61
2023-04-10T16:11:50.656Z,54.15
2023-04-10T16:16:53.353Z,54.72
2023-04-10T16:21:57.264Z,55.43
2023-04-10T16:27:02.206Z,55.37
2023-04-10T16:32:04.898Z,55.72
2023-04-10T16:37:08.011Z,55.89
2023-04-10T16:42:10.669Z,56.31
2023-04-10T16:47:13.342Z,56.30
2023-04-10T16:52:16.298Z,56.40
2023-04-10T16:57:19.059Z,56.64
2023-04-10T17:02:25.064Z,57.42
2023-04-10T17:07:28.020Z,57.73
2023-04-10T17:12:31.081Z,58.59
2023-04-10T17:17:34.421Z,59.10
2023-04-10T17:22:37.184Z,59.48
2023-04-10T17:27:40.732Z,60.41
2023-04-10T17:32:43.703Z,60.65
2023-04-10T17:37:46.373Z,61.05
2023-04-10T17:42:48.989Z,61.72
2023-04-10T17:47:51.810Z,61.63
2023-04-10T17:52:54.493Z,62.63
2023-04-10T17:57:57.678Z,63.53
2023-04-10T18:03:01.098Z,63.39
2023-04-10T18:08:04.149Z,64.63
2023-04-10T18:13:06.856Z,64.58
2023-04-10T18:18:09.549Z,65.30
2023-04-10T18:23:12.160Z,65.53
2023-04-10T18:28:16.938Z,65.90
2023-04-10T18:33:24.100Z,66.19
2023-04-10T18:38:27.221Z,66.74
2023-04-10T18:43:29.901Z,67.26
2023-04-10T18:48:34.821Z,67.86
2023-04-10T18:53:38.376Z,68.36
2023-04-10T18:58:41.537Z,68.47
2023-04-10T19:03:47.831Z,68.60
2023-04-10T19:08:51.897Z,68.58
2023-04-10T19:13:54.816Z,69.27
2023-04-10T19:18:57.926Z,69.10
2023-04-10T19:24:00.582Z,68.38
2023-04-10T19:29:03.113Z,67.57
2023-04-10T19:34:09.392Z,67.48
2023-04-10T19:39:12.528Z,67.42
2023-04-10T19:44:15.141Z,67.88
2023-04-10T19:49:19.223Z,68.15
2023-04-10T19:54:21.959Z,68.22
2023-04-10T19:59:24.709Z,68.07
2023-04-10T20:04:27.350Z,67.87
2023-04-10T20:09:30.099Z,68.26
2023-04-10T20:14:32.714Z,68.57
2023-04-10T20:19:35.328Z,68.85
2023-04-10T20:24:37.907Z,69.26
2023-04-10T20:29:40.678Z,70.23
2023-04-10T20:34:43.300Z,70.64
2023-04-10T20:39:45.951Z,72.30
2023-04-10T20:44:48.858Z,72.25
2023-04-10T20:49:51.507Z,73.01
2023-04-10T20:54:54.321Z,73.70
2023-04-10T21:00:07.059Z,72.77
